sensor_id;sensor_type;location;lat;lon;timestamp;pressure;altitude;pressure_sealevel;temperature;humidity
37710;BME280;60223;34.854;-92.408;2023-08-08T00:02:24;100443.70;;;28.41;27.16
37710;BME280;60223;34.854;-92.408;2023-08-08T00:04:49;100444.52;;;28.87;27.15
37710;BME280;60223;34.854;-92.408;2023-08-08T00:07:16;100451.61;;;28.58;27.37
37710;BME280;60223;34.854;-92.408;2023-08-08T00:09:41;100450.79;;;28.41;27.46
37710;BME280;60223;34.854;-92.408;2023-08-08T00:12:07;100455.30;;;28.08;27.70
37710;BME280;60223;34.854;-92.408;2023-08-08T00:14:30;100461.60;;;28.80;27.58
37710;BME280;60223;34.854;-92.408;2023-08-08T00:19:23;100467.80;;;30.37;25.70
37710;BME280;60223;34.854;-92.408;2023-08-08T00:21:48;100470.38;;;30.89;25.49
37710;BME280;60223;34.854;-92.408;2023-08-08T00:24:15;100466.19;;;30.98;25.40
37710;BME280;60223;34.854;-92.408;2023-08-08T00:26:41;100465.37;;;30.37;25.79
37710;BME280;60223;34.854;-92.408;2023-08-08T00:29:06;100461.64;;;29.02;26.83
37710;BME280;60223;34.854;-92.408;2023-08-08T00:31:30;100457.04;;;27.96;27.74
37710;BME280;60223;34.854;-92.408;2023-08-08T00:33:57;100462.02;;;28.53;27.54
37710;BME280;60223;34.854;-92.408;2023-08-08T00:36:22;100459.18;;;27.90;28.01
37710;BME280;60223;34.854;-92.408;2023-08-08T00:38:47;100460.20;;;27.77;28.05
37710;BME280;60223;34.854;-92.408;2023-08-08T00:41:13;100464.52;;;27.62;28.07
37710;BME280;60223;34.854;-92.408;2023-08-08T00:43:40;100468.34;;;28.26;28.31
37710;BME280;60223;34.854;-92.408;2023-08-08T00:46:05;100469.76;;;29.88;26.23
37710;BME280;60223;34.854;-92.408;2023-08-08T00:48:30;100468.68;;;30.32;25.87
37710;BME280;60223;34.854;-92.408;2023-08-08T00:50:56;100471.93;;;30.16;25.61
37710;BME280;60223;34.854;-92.408;2023-08-08T00:53:21;100474.07;;;30.78;25.53
37710;BME280;60223;34.854;-92.408;2023-08-08T00:55:47;100474.31;;;30.48;25.39
37710;BME280;60223;34.854;-92.408;2023-08-08T00:58:12;100476.61;;;30.39;25.52
37710;BME280;60223;34.854;-92.408;2023-08-08T01:00:37;100472.27;;;28.56;27.12
37710;BME280;60223;34.854;-92.408;2023-08-08T01:03:01;100475.06;;;28.25;27.35
37710;BME280;60223;34.854;-92.408;2023-08-08T01:05:35;100472.08;;;28.08;27.90
37710;BME280;60223;34.854;-92.408;2023-08-08T01:07:57;100478.29;;;27.52;28.32
37710;BME280;60223;34.854;-92.408;2023-08-08T01:10:25;100478.68;;;28.37;27.56
37710;BME280;60223;34.854;-92.408;2023-08-08T01:12:50;100478.39;;;28.37;27.77
37710;BME280;60223;34.854;-92.408;2023-08-08T01:15:13;100484.02;;;30.15;26.00
37710;BME280;60223;34.854;-92.408;2023-08-08T01:17:38;100490.45;;;30.29;25.67
37710;BME280;60223;34.854;-92.408;2023-08-08T01:20:02;100489.64;;;30.71;25.52
37710;BME280;60223;34.854;-92.408;2023-08-08T01:22:29;100486.62;;;30.65;25.41
37710;BME280;60223;34.854;-92.408;2023-08-08T01:24:55;100486.62;;;30.53;25.36
37710;BME280;60223;34.854;-92.408;2023-08-08T01:27:20;100488.65;;;30.57;25.53
37710;BME280;60223;34.854;-92.408;2023-08-08T01:29:46;100483.50;;;29.67;26.16
37710;BME280;60223;34.854;-92.408;2023-08-08T01:32:10;100477.03;;;28.92;27.25
37710;BME280;60223;34.854;-92.408;2023-08-08T01:34:37;100480.42;;;28.74;27.23
37710;BME280;60223;34.854;-92.408;2023-08-08T01:37:05;100479.59;;;28.74;27.03
37710;BME280;60223;34.854;-92.408;2023-08-08T01:39:30;100476.36;;;29.41;26.81
37710;BME280;60223;34.854;-92.408;2023-08-08T01:41:54;100474.97;;;30.35;25.96
37710;BME280;60223;34.854;-92.408;2023-08-08T01:44:20;100474.37;;;30.56;25.61
37710;BME280;60223;34.854;-92.408;2023-08-08T01:46:45;100474.07;;;30.66;25.57
37710;BME280;60223;34.854;-92.408;2023-08-08T01:49:10;100473.59;;;30.39;25.58
37710;BME280;60223;34.854;-92.408;2023-08-08T01:51:35;100476.12;;;30.21;25.82
37710;BME280;60223;34.854;-92.408;2023-08-08T01:53:58;100470.60;;;29.89;26.15
37710;BME280;60223;34.854;-92.408;2023-08-08T01:56:24;100465.14;;;30.13;26.02
37710;BME280;60223;34.854;-92.408;2023-08-08T01:58:52;100463.17;;;29.87;26.28
37710;BME280;60223;34.854;-92.408;2023-08-08T02:01:19;100468.57;;;30.49;25.81
37710;BME280;60223;34.854;-92.408;2023-08-08T02:03:43;100470.99;;;31.07;25.55
37710;BME280;60223;34.854;-92.408;2023-08-08T02:06:06;100471.95;;;30.78;25.62
37710;BME280;60223;34.854;-92.408;2023-08-08T02:08:35;100474.56;;;30.49;25.88
37710;BME280;60223;34.854;-92.408;2023-08-08T02:11:01;100473.12;;;30.05;26.30
37710;BME280;60223;34.854;-92.408;2023-08-08T02:13:23;100474.31;;;29.89;26.47
37710;BME280;60223;34.854;-92.408;2023-08-08T02:15:51;100485.57;;;30.24;26.54
37710;BME280;60223;34.854;-92.408;2023-08-08T02:18:17;100495.14;;;30.16;26.57
37710;BME280;60223;34.854;-92.408;2023-08-08T02:20:43;100500.64;;;30.16;26.41
37710;BME280;60223;34.854;-92.408;2023-08-08T02:23:08;100505.74;;;30.48;26.66
37710;BME280;60223;34.854;-92.408;2023-08-08T02:25:33;100509.07;;;30.34;26.56
37710;BME280;60223;34.854;-92.408;2023-08-08T02:27:59;100509.98;;;30.36;26.45
37710;BME280;60223;34.854;-92.408;2023-08-08T02:30:25;100511.67;;;30.47;26.44
37710;BME280;60223;34.854;-92.408;2023-08-08T02:32:48;100513.58;;;30.45;26.73
37710;BME280;60223;34.854;-92.408;2023-08-08T02:37:41;100514.64;;;30.80;26.15
37710;BME280;60223;34.854;-92.408;2023-08-08T02:40:07;100522.04;;;30.97;26.20
37710;BME280;60223;34.854;-92.408;2023-08-08T02:42:32;100529.29;;;30.32;26.37
37710;BME280;60223;34.854;-92.408;2023-08-08T02:44:57;100528.54;;;30.31;27.22
37710;BME280;60223;34.854;-92.408;2023-08-08T02:47:24;100535.65;;;30.54;26.52
37710;BME280;60223;34.854;-92.408;2023-08-08T02:49:49;100540.98;;;31.46;25.92
37710;BME280;60223;34.854;-92.408;2023-08-08T02:52:15;100543.68;;;31.49;26.12
37710;BME280;60223;34.854;-92.408;2023-08-08T02:54:40;100543.37;;;31.20;26.15
37710;BME280;60223;34.854;-92.408;2023-08-08T02:57:06;100537.06;;;31.37;26.04
37710;BME280;60223;34.854;-92.408;2023-08-08T02:59:31;100530.04;;;31.56;25.99
37710;BME280;60223;34.854;-92.408;2023-08-08T03:01:55;100531.35;;;31.64;26.09
37710;BME280;60223;34.854;-92.408;2023-08-08T03:04:22;100532.95;;;31.24;26.21
37710;BME280;60223;34.854;-92.408;2023-08-08T03:06:48;100534.23;;;31.14;26.37
37710;BME280;60223;34.854;-92.408;2023-08-08T03:09:14;100533.44;;;31.25;26.55
37710;BME280;60223;34.854;-92.408;2023-08-08T03:11:39;100535.70;;;31.11;26.50
37710;BME280;60223;34.854;-92.408;2023-08-08T03:14:05;100534.22;;;31.54;26.04
37710;BME280;60223;34.854;-92.408;2023-08-08T03:16:31;100538.65;;;31.33;26.62
37710;BME280;60223;34.854;-92.408;2023-08-08T03:18:56;100543.36;;;31.30;26.31
37710;BME280;60223;34.854;-92.408;2023-08-08T03:21:25;100550.21;;;31.40;26.51
37710;BME280;60223;34.854;-92.408;2023-08-08T03:23:46;100551.69;;;31.45;26.59
37710;BME280;60223;34.854;-92.408;2023-08-08T03:26:13;100547.35;;;31.02;26.74
37710;BME280;60223;34.854;-92.408;2023-08-08T03:28:38;100543.91;;;31.38;26.76
37710;BME280;60223;34.854;-92.408;2023-08-08T03:31:04;100543.90;;;31.42;26.73
37710;BME280;60223;34.854;-92.408;2023-08-08T03:33:28;100542.16;;;31.33;26.86
37710;BME280;60223;34.854;-92.408;2023-08-08T03:35:53;100544.36;;;31.38;26.78
37710;BME280;60223;34.854;-92.408;2023-08-08T03:38:21;100553.11;;;31.00;26.78
37710;BME280;60223;34.854;-92.408;2023-08-08T03:40:45;100560.17;;;30.95;27.17
37710;BME280;60223;34.854;-92.408;2023-08-08T03:43:12;100559.40;;;30.94;27.14
37710;BME280;60223;34.854;-92.408;2023-08-08T03:45:36;100546.04;;;31.10;27.03
37710;BME280;60223;34.854;-92.408;2023-08-08T03:48:03;100545.17;;;31.07;27.26
37710;BME280;60223;34.854;-92.408;2023-08-08T03:50:28;100554.40;;;31.51;26.75
37710;BME280;60223;34.854;-92.408;2023-08-08T03:52:54;100560.76;;;31.31;26.72
37710;BME280;60223;34.854;-92.408;2023-08-08T03:55:41;100564.73;;;31.23;27.28
37710;BME280;60223;34.854;-92.408;2023-08-08T03:57:45;100568.77;;;30.98;26.93
37710;BME280;60223;34.854;-92.408;2023-08-08T04:00:11;100571.24;;;31.13;27.45
37710;BME280;60223;34.854;-92.408;2023-08-08T04:02:36;100565.60;;;31.44;26.90
37710;BME280;60223;34.854;-92.408;2023-08-08T04:05:02;100564.00;;;31.47;27.02
37710;BME280;60223;34.854;-92.408;2023-08-08T04:07:27;100569.03;;;31.03;27.55
37710;BME280;60223;34.854;-92.408;2023-08-08T04:09:53;100571.45;;;30.86;27.63
37710;BME280;60223;34.854;-92.408;2023-08-08T04:12:19;100572.27;;;31.28;27.40
37710;BME280;60223;34.854;-92.408;2023-08-08T04:14:43;100576.01;;;31.15;26.81
37710;BME280;60223;34.854;-92.408;2023-08-08T04:17:10;100578.03;;;31.42;26.78
37710;BME280;60223;34.854;-92.408;2023-08-08T04:19:34;100575.49;;;31.42;27.18
37710;BME280;60223;34.854;-92.408;2023-08-08T04:22:01;100576.22;;;31.48;27.13
37710;BME280;60223;34.854;-92.408;2023-08-08T04:24:25;100580.86;;;31.14;26.85
37710;BME280;60223;34.854;-92.408;2023-08-08T04:26:52;100577.19;;;31.28;27.31
37710;BME280;60223;34.854;-92.408;2023-08-08T04:29:18;100582.86;;;31.27;27.46
37710;BME280;60223;34.854;-92.408;2023-08-08T04:31:43;100585.95;;;31.40;27.01
37710;BME280;60223;34.854;-92.408;2023-08-08T04:34:08;100582.16;;;30.80;27.27
37710;BME280;60223;34.854;-92.408;2023-08-08T04:36:34;100575.02;;;31.09;27.17
37710;BME280;60223;34.854;-92.408;2023-08-08T04:39:00;100578.00;;;31.24;27.18
37710;BME280;60223;34.854;-92.408;2023-08-08T04:41:25;100583.22;;;31.19;27.79
37710;BME280;60223;34.854;-92.408;2023-08-08T04:43:51;100582.40;;;31.44;27.45
37710;BME280;60223;34.854;-92.408;2023-08-08T04:46:15;100582.58;;;31.16;27.39
37710;BME280;60223;34.854;-92.408;2023-08-08T04:48:42;100588.08;;;31.28;27.82
37710;BME280;60223;34.854;-92.408;2023-08-08T04:51:08;100589.75;;;31.24;27.73
37710;BME280;60223;34.854;-92.408;2023-08-08T04:53:33;100587.92;;;31.27;27.55
37710;BME280;60223;34.854;-92.408;2023-08-08T04:55:57;100586.98;;;31.22;27.66
37710;BME280;60223;34.854;-92.408;2023-08-08T04:58:23;100587.90;;;31.06;28.25
37710;BME280;60223;34.854;-92.408;2023-08-08T05:00:50;100599.44;;;30.94;27.96
37710;BME280;60223;34.854;-92.408;2023-08-08T05:03:16;100594.36;;;31.54;27.19
37710;BME280;60223;34.854;-92.408;2023-08-08T05:05:41;100591.38;;;31.18;27.59
37710;BME280;60223;34.854;-92.408;2023-08-08T05:08:07;100592.11;;;31.27;27.45
37710;BME280;60223;34.854;-92.408;2023-08-08T05:10:31;100593.99;;;31.03;27.83
37710;BME280;60223;34.854;-92.408;2023-08-08T05:12:58;100588.38;;;31.23;27.86
37710;BME280;60223;34.854;-92.408;2023-08-08T05:15:23;100593.35;;;30.82;27.82
37710;BME280;60223;34.854;-92.408;2023-08-08T05:17:49;100600.66;;;31.20;27.87
37710;BME280;60223;34.854;-92.408;2023-08-08T05:20:14;100600.10;;;31.34;27.50
37710;BME280;60223;34.854;-92.408;2023-08-08T05:22:39;100598.86;;;31.31;27.87
37710;BME280;60223;34.854;-92.408;2023-08-08T05:25:06;100598.84;;;31.26;27.65
37710;BME280;60223;34.854;-92.408;2023-08-08T05:27:31;100595.73;;;31.06;28.01
37710;BME280;60223;34.854;-92.408;2023-08-08T05:29:57;100585.71;;;30.99;27.87
37710;BME280;60223;34.854;-92.408;2023-08-08T05:32:22;100576.39;;;31.23;28.22
37710;BME280;60223;34.854;-92.408;2023-08-08T05:34:49;100574.91;;;31.31;27.56
37710;BME280;60223;34.854;-92.408;2023-08-08T05:37:13;100569.94;;;31.15;28.20
37710;BME280;60223;34.854;-92.408;2023-08-08T05:39:36;100571.20;;;31.27;27.70
37710;BME280;60223;34.854;-92.408;2023-08-08T05:42:05;100574.84;;;31.26;28.23
37710;BME280;60223;34.854;-92.408;2023-08-08T05:44:30;100563.42;;;31.30;28.13
37710;BME280;60223;34.854;-92.408;2023-08-08T05:46:54;100551.21;;;31.16;27.98
37710;BME280;60223;34.854;-92.408;2023-08-08T05:49:21;100539.59;;;31.30;28.00
37710;BME280;60223;34.854;-92.408;2023-08-08T05:51:46;100534.71;;;31.00;28.49
37710;BME280;60223;34.854;-92.408;2023-08-08T05:54:12;100525.06;;;31.01;28.48
37710;BME280;60223;34.854;-92.408;2023-08-08T05:56:40;100518.89;;;31.28;27.78
37710;BME280;60223;34.854;-92.408;2023-08-08T05:59:03;100520.53;;;31.36;28.22
37710;BME280;60223;34.854;-92.408;2023-08-08T06:01:29;100515.34;;;31.27;27.98
37710;BME280;60223;34.854;-92.408;2023-08-08T06:03:54;100509.36;;;31.25;28.04
37710;BME280;60223;34.854;-92.408;2023-08-08T06:06:20;100517.52;;;31.19;28.26
37710;BME280;60223;34.854;-92.408;2023-08-08T06:08:46;100532.17;;;31.39;27.70
37710;BME280;60223;34.854;-92.408;2023-08-08T06:11:10;100533.17;;;31.17;27.84
37710;BME280;60223;34.854;-92.408;2023-08-08T06:13:36;100525.39;;;31.36;28.30
37710;BME280;60223;34.854;-92.408;2023-08-08T06:16:02;100511.18;;;31.42;27.80
37710;BME280;60223;34.854;-92.408;2023-08-08T06:18:26;100510.05;;;30.89;28.64
37710;BME280;60223;34.854;-92.408;2023-08-08T06:20:54;100516.24;;;31.29;27.75
37710;BME280;60223;34.854;-92.408;2023-08-08T06:23:18;100517.89;;;31.07;28.29
37710;BME280;60223;34.854;-92.408;2023-08-08T06:25:44;100509.78;;;31.25;28.12
37710;BME280;60223;34.854;-92.408;2023-08-08T06:28:10;100506.61;;;31.26;27.94
37710;BME280;60223;34.854;-92.408;2023-08-08T06:30:35;100510.87;;;31.44;27.67
37710;BME280;60223;34.854;-92.408;2023-08-08T06:33:01;100515.23;;;31.18;28.03
37710;BME280;60223;34.854;-92.408;2023-08-08T06:35:27;100520.00;;;31.48;27.95
37710;BME280;60223;34.854;-92.408;2023-08-08T06:37:51;100531.42;;;31.08;28.11
37710;BME280;60223;34.854;-92.408;2023-08-08T06:40:18;100521.06;;;31.12;27.99
37710;BME280;60223;34.854;-92.408;2023-08-08T06:42:43;100502.57;;;31.14;27.75
37710;BME280;60223;34.854;-92.408;2023-08-08T06:45:09;100492.49;;;31.25;28.44
37710;BME280;60223;34.854;-92.408;2023-08-08T06:47:35;100478.57;;;31.32;28.42
37710;BME280;60223;34.854;-92.408;2023-08-08T06:49:59;100471.18;;;31.32;28.01
37710;BME280;60223;34.854;-92.408;2023-08-08T06:52:25;100479.70;;;30.98;28.12
37710;BME280;60223;34.854;-92.408;2023-08-08T06:54:51;100472.86;;;31.17;27.81
37710;BME280;60223;34.854;-92.408;2023-08-08T06:57:15;100476.90;;;31.27;28.49
37710;BME280;60223;34.854;-92.408;2023-08-08T06:59:43;100500.15;;;31.17;28.23
37710;BME280;60223;34.854;-92.408;2023-08-08T07:02:09;100515.76;;;31.17;28.21
37710;BME280;60223;34.854;-92.408;2023-08-08T07:04:34;100513.82;;;31.38;27.96
37710;BME280;60223;34.854;-92.408;2023-08-08T07:06:59;100516.58;;;31.58;28.40
37710;BME280;60223;34.854;-92.408;2023-08-08T07:09:25;100506.84;;;31.40;27.99
37710;BME280;60223;34.854;-92.408;2023-08-08T07:11:50;100501.24;;;31.27;27.86
37710;BME280;60223;34.854;-92.408;2023-08-08T07:14:15;100506.18;;;31.28;27.99
37710;BME280;60223;34.854;-92.408;2023-08-08T07:16:41;100497.05;;;31.06;27.97
37710;BME280;60223;34.854;-92.408;2023-08-08T07:19:05;100486.14;;;31.17;28.07
37710;BME280;60223;34.854;-92.408;2023-08-08T07:21:33;100480.96;;;31.08;28.24
37710;BME280;60223;34.854;-92.408;2023-08-08T07:23:58;100478.02;;;31.24;28.33
37710;BME280;60223;34.854;-92.408;2023-08-08T07:26:24;100463.51;;;31.39;28.31
37710;BME280;60223;34.854;-92.408;2023-08-08T07:28:49;100442.53;;;31.19;28.05
37710;BME280;60223;34.854;-92.408;2023-08-08T07:31:14;100420.05;;;31.30;28.26
37710;BME280;60223;34.854;-92.408;2023-08-08T07:33:41;100411.17;;;30.98;28.23
37710;BME280;60223;34.854;-92.408;2023-08-08T07:36:03;100406.45;;;31.17;28.66
37710;BME280;60223;34.854;-92.408;2023-08-08T07:38:32;100385.52;;;31.04;28.24
37710;BME280;60223;34.854;-92.408;2023-08-08T07:40:57;100386.03;;;31.20;28.54
37710;BME280;60223;34.854;-92.408;2023-08-08T07:53:05;100357.11;;;31.21;28.49
37710;BME280;60223;34.854;-92.408;2023-08-08T07:55:30;100370.81;;;31.18;28.22
37710;BME280;60223;34.854;-92.408;2023-08-08T07:57:56;100378.21;;;31.20;28.30
37710;BME280;60223;34.854;-92.408;2023-08-08T08:00:22;100384.74;;;30.93;28.41
37710;BME280;60223;34.854;-92.408;2023-08-08T08:02:46;100397.14;;;31.24;28.33
37710;BME280;60223;34.854;-92.408;2023-08-08T08:05:13;100405.64;;;31.34;28.20
37710;BME280;60223;34.854;-92.408;2023-08-08T08:07:39;100422.04;;;30.98;28.26
37710;BME280;60223;34.854;-92.408;2023-08-08T08:10:05;100433.34;;;31.04;28.37
37710;BME280;60223;34.854;-92.408;2023-08-08T08:12:27;100423.92;;;31.40;28.72
37710;BME280;60223;34.854;-92.408;2023-08-08T08:14:54;100419.29;;;31.28;28.48
37710;BME280;60223;34.854;-92.408;2023-08-08T08:17:20;100416.23;;;31.36;28.41
37710;BME280;60223;34.854;-92.408;2023-08-08T08:19:46;100410.97;;;31.38;28.45
37710;BME280;60223;34.854;-92.408;2023-08-08T08:22:12;100414.55;;;31.26;28.41
37710;BME280;60223;34.854;-92.408;2023-08-08T08:24:37;100397.70;;;31.20;28.20
37710;BME280;60223;34.854;-92.408;2023-08-08T08:27:03;100387.60;;;31.17;28.55
37710;BME280;60223;34.854;-92.408;2023-08-08T08:29:29;100400.69;;;31.11;28.58
37710;BME280;60223;34.854;-92.408;2023-08-08T08:31:52;100403.08;;;31.33;28.49
37710;BME280;60223;34.854;-92.408;2023-08-08T08:34:20;100393.36;;;31.20;28.29
37710;BME280;60223;34.854;-92.408;2023-08-08T08:36:45;100393.04;;;31.06;28.78
37710;BME280;60223;34.854;-92.408;2023-08-08T08:39:09;100383.84;;;30.97;28.66
37710;BME280;60223;34.854;-92.408;2023-08-08T08:41:38;100377.85;;;31.23;28.48
37710;BME280;60223;34.854;-92.408;2023-08-08T08:44:03;100369.86;;;31.29;28.37
37710;BME280;60223;34.854;-92.408;2023-08-08T08:46:28;100363.51;;;30.85;28.67
37710;BME280;60223;34.854;-92.408;2023-08-08T08:48:54;100358.39;;;31.06;28.49
37710;BME280;60223;34.854;-92.408;2023-08-08T08:51:18;100358.89;;;30.91;28.65
37710;BME280;60223;34.854;-92.408;2023-08-08T08:53:45;100348.82;;;31.11;28.49
37710;BME280;60223;34.854;-92.408;2023-08-08T08:56:10;100347.95;;;31.26;28.57
37710;BME280;60223;34.854;-92.408;2023-08-08T08:58:35;100361.97;;;31.18;28.69
37710;BME280;60223;34.854;-92.408;2023-08-08T09:01:01;100377.39;;;31.12;28.63
37710;BME280;60223;34.854;-92.408;2023-08-08T09:03:25;100383.13;;;31.06;28.56
37710;BME280;60223;34.854;-92.408;2023-08-08T09:05:52;100371.14;;;30.98;28.34
37710;BME280;60223;34.854;-92.408;2023-08-08T09:08:18;100376.46;;;31.13;28.31
37710;BME280;60223;34.854;-92.408;2023-08-08T09:10:43;100380.59;;;31.18;28.64
37710;BME280;60223;34.854;-92.408;2023-08-08T09:13:07;100396.74;;;31.21;28.42
37710;BME280;60223;34.854;-92.408;2023-08-08T09:15:35;100406.98;;;31.12;28.39
37710;BME280;60223;34.854;-92.408;2023-08-08T09:18:00;100428.00;;;30.97;28.63
37710;BME280;60223;34.854;-92.408;2023-08-08T09:20:26;100463.60;;;31.00;28.45
37710;BME280;60223;34.854;-92.408;2023-08-08T09:22:52;100486.37;;;30.85;28.55
37710;BME280;60223;34.854;-92.408;2023-08-08T09:25:17;100514.50;;;30.90;28.55
37710;BME280;60223;34.854;-92.408;2023-08-08T09:27:41;100530.73;;;30.93;28.69
37710;BME280;60223;34.854;-92.408;2023-08-08T09:30:09;100533.19;;;30.86;28.53
37710;BME280;60223;34.854;-92.408;2023-08-08T09:32:34;100521.16;;;31.19;28.50
37710;BME280;60223;34.854;-92.408;2023-08-08T09:34:59;100495.43;;;31.31;28.64
37710;BME280;60223;34.854;-92.408;2023-08-08T09:37:25;100478.81;;;30.97;28.59
37710;BME280;60223;34.854;-92.408;2023-08-08T09:42:17;100472.05;;;31.27;28.37
37710;BME280;60223;34.854;-92.408;2023-08-08T09:44:42;100444.95;;;31.20;28.45
37710;BME280;60223;34.854;-92.408;2023-08-08T09:47:11;100456.59;;;30.97;28.69
37710;BME280;60223;34.854;-92.408;2023-08-08T09:49:33;100499.93;;;30.96;28.70
37710;BME280;60223;34.854;-92.408;2023-08-08T09:51:59;100523.31;;;30.95;28.96
37710;BME280;60223;34.854;-92.408;2023-08-08T09:54:24;100517.53;;;31.21;28.57
37710;BME280;60223;34.854;-92.408;2023-08-08T09:56:48;100504.13;;;31.18;28.47
37710;BME280;60223;34.854;-92.408;2023-08-08T09:59:16;100513.34;;;30.97;28.65
37710;BME280;60223;34.854;-92.408;2023-08-08T10:01:40;100536.34;;;30.72;28.71
37710;BME280;60223;34.854;-92.408;2023-08-08T10:04:06;100537.27;;;31.14;28.66
37710;BME280;60223;34.854;-92.408;2023-08-08T10:06:31;100526.73;;;30.98;28.98
37710;BME280;60223;34.854;-92.408;2023-08-08T10:08:57;100546.77;;;31.03;28.78
37710;BME280;60223;34.854;-92.408;2023-08-08T10:11:22;100567.92;;;30.67;28.79
37710;BME280;60223;34.854;-92.408;2023-08-08T10:13:53;100556.23;;;30.98;28.74
37710;BME280;60223;34.854;-92.408;2023-08-08T10:16:12;100552.33;;;30.68;28.94
37710;BME280;60223;34.854;-92.408;2023-08-08T10:18:38;100556.85;;;30.66;29.01
37710;BME280;60223;34.854;-92.408;2023-08-08T10:21:07;100543.73;;;31.19;28.74
37710;BME280;60223;34.854;-92.408;2023-08-08T10:23:36;100521.88;;;31.14;28.37
37710;BME280;60223;34.854;-92.408;2023-08-08T10:25:56;100494.23;;;31.08;28.86
37710;BME280;60223;34.854;-92.408;2023-08-08T10:28:23;100480.41;;;31.34;28.49
37710;BME280;60223;34.854;-92.408;2023-08-08T10:30:48;100485.69;;;31.11;28.54
37710;BME280;60223;34.854;-92.408;2023-08-08T10:33:18;100498.26;;;30.76;28.91
37710;BME280;60223;34.854;-92.408;2023-08-08T10:35:40;100522.02;;;31.13;28.73
37710;BME280;60223;34.854;-92.408;2023-08-08T10:38:07;100546.59;;;30.98;28.69
37710;BME280;60223;34.854;-92.408;2023-08-08T10:40:32;100570.28;;;31.19;28.60
37710;BME280;60223;34.854;-92.408;2023-08-08T10:42:55;100605.42;;;30.91;28.75
37710;BME280;60223;34.854;-92.408;2023-08-08T10:45:21;100630.51;;;30.78;29.26
37710;BME280;60223;34.854;-92.408;2023-08-08T10:47:48;100632.85;;;30.99;28.89
37710;BME280;60223;34.854;-92.408;2023-08-08T10:50:13;100645.77;;;30.81;28.66
37710;BME280;60223;34.854;-92.408;2023-08-08T10:55:01;100689.60;;;30.88;29.15
37710;BME280;60223;34.854;-92.408;2023-08-08T10:57:29;100713.48;;;30.89;29.12
37710;BME280;60223;34.854;-92.408;2023-08-08T10:59:53;100734.31;;;31.06;28.70
37710;BME280;60223;34.854;-92.408;2023-08-08T11:02:20;100762.03;;;30.73;28.82
37710;BME280;60223;34.854;-92.408;2023-08-08T11:04:45;100783.88;;;30.81;28.72
37710;BME280;60223;34.854;-92.408;2023-08-08T11:07:11;100794.61;;;31.09;28.95
37710;BME280;60223;34.854;-92.408;2023-08-08T11:09:36;100795.62;;;31.06;28.96
37710;BME280;60223;34.854;-92.408;2023-08-08T11:12:01;100807.01;;;31.09;28.80
37710;BME280;60223;34.854;-92.408;2023-08-08T11:14:28;100808.13;;;30.64;29.06
37710;BME280;60223;34.854;-92.408;2023-08-08T11:16:52;100808.97;;;30.43;29.49
37710;BME280;60223;34.854;-92.408;2023-08-08T11:19:17;100822.55;;;29.76;29.71
37710;BME280;60223;34.854;-92.408;2023-08-08T11:21:45;100844.77;;;28.84;30.31
37710;BME280;60223;34.854;-92.408;2023-08-08T11:24:10;100855.56;;;28.57;30.51
37710;BME280;60223;34.854;-92.408;2023-08-08T11:26:36;100840.14;;;28.58;30.39
37710;BME280;60223;34.854;-92.408;2023-08-08T11:29:02;100830.18;;;28.08;30.43
37710;BME280;60223;34.854;-92.408;2023-08-08T11:31:26;100831.26;;;28.90;30.31
37710;BME280;60223;34.854;-92.408;2023-08-08T11:33:52;100842.59;;;30.02;29.04
37710;BME280;60223;34.854;-92.408;2023-08-08T11:36:18;100855.96;;;30.51;28.54
37710;BME280;60223;34.854;-92.408;2023-08-08T11:38:43;100864.42;;;30.42;28.45
37710;BME280;60223;34.854;-92.408;2023-08-08T11:41:09;100858.61;;;30.29;28.36
37710;BME280;60223;34.854;-92.408;2023-08-08T11:43:34;100853.36;;;30.64;28.05
37710;BME280;60223;34.854;-92.408;2023-08-08T11:46:01;100849.31;;;30.95;27.99
37710;BME280;60223;34.854;-92.408;2023-08-08T11:48:25;100838.31;;;30.74;27.97
37710;BME280;60223;34.854;-92.408;2023-08-08T11:50:49;100826.28;;;30.63;27.87
37710;BME280;60223;34.854;-92.408;2023-08-08T11:53:17;100808.40;;;30.82;28.07
37710;BME280;60223;34.854;-92.408;2023-08-08T11:55:42;100795.60;;;30.96;27.92
37710;BME280;60223;34.854;-92.408;2023-08-08T11:58:12;100783.82;;;30.92;28.04
37710;BME280;60223;34.854;-92.408;2023-08-08T12:00:34;100769.59;;;30.87;27.99
37710;BME280;60223;34.854;-92.408;2023-08-08T12:03:00;100752.35;;;30.97;27.91
37710;BME280;60223;34.854;-92.408;2023-08-08T12:05:25;100743.65;;;31.17;28.04
37710;BME280;60223;34.854;-92.408;2023-08-08T12:07:49;100736.47;;;31.04;27.99
37710;BME280;60223;34.854;-92.408;2023-08-08T12:10:20;100738.83;;;31.14;28.03
37710;BME280;60223;34.854;-92.408;2023-08-08T12:12:40;100752.55;;;30.97;28.20
37710;BME280;60223;34.854;-92.408;2023-08-08T12:15:08;100755.37;;;31.03;28.15
37710;BME280;60223;34.854;-92.408;2023-08-08T12:17:32;100729.43;;;31.00;28.21
37710;BME280;60223;34.854;-92.408;2023-08-08T12:19:59;100692.57;;;30.71;28.30
37710;BME280;60223;34.854;-92.408;2023-08-08T12:22:23;100671.32;;;30.86;28.07
37710;BME280;60223;34.854;-92.408;2023-08-08T12:24:48;100677.14;;;31.19;27.92
37710;BME280;60223;34.854;-92.408;2023-08-08T12:27:15;100703.58;;;31.06;27.99
37710;BME280;60223;34.854;-92.408;2023-08-08T12:29:40;100725.13;;;31.03;28.04
37710;BME280;60223;34.854;-92.408;2023-08-08T12:32:05;100742.74;;;30.97;28.13
37710;BME280;60223;34.854;-92.408;2023-08-08T12:34:31;100748.99;;;31.11;28.03
37710;BME280;60223;34.854;-92.408;2023-08-08T12:36:55;100733.02;;;30.91;28.20
37710;BME280;60223;34.854;-92.408;2023-08-08T12:39:22;100720.49;;;30.82;28.04
37710;BME280;60223;34.854;-92.408;2023-08-08T12:41:47;100746.79;;;30.99;28.14